createdAt,value
2023-05-06T00:05:11.000Z,80.1
2023-05-06T00:35:12.944Z,79.3
2023-05-06T01:05:13.466Z,78.6
2023-05-06T01:35:14.465Z,79.7
2023-05-06T02:05:15.030Z,80.9
2023-05-06T02:35:15.552Z,81.7
2023-05-06T03:05:16.094Z,80.9
2023-05-06T03:35:16.771Z,80.7
2023-05-06T04:05:17.404Z,79.9
2023-05-06T04:35:17.882Z,81.4
2023-05-06T05:35:28.961Z,79.5
2023-05-06T06:35:40.224Z,79.4
2023-05-06T07:05:41.217Z,80.7
2023-05-06T07:35:41.951Z,71.4
2023-05-06T08:05:42.878Z,73.2
2023-05-06T08:35:43.472Z,72.7
2023-05-06T09:05:44.067Z,69
2023-05-06T09:35:44.593Z,62.9
2023-05-06T10:05:45.241Z,56.3
2023-05-06T10:35:45.761Z,53.3
2023-05-06T11:05:46.362Z,51.1
2023-05-06T12:05:57.476Z,47.1
2023-05-06T13:06:08.589Z,48.2
2023-05-06T14:06:19.602Z,45.6
2023-05-06T14:36:20.533Z,42.9
2023-05-06T15:06:21.112Z,41.7
2023-05-06T15:36:21.671Z,42.1
2023-05-06T16:06:22.198Z,41
2023-05-06T16:36:22.916Z,44.6
2023-05-06T17:06:23.640Z,45.7
2023-05-06T18:06:35.121Z,50.2
2023-05-06T19:06:48.490Z,55
2023-05-06T19:36:49.309Z,61.2
2023-05-06T20:06:49.885Z,64
2023-05-06T20:36:50.947Z,65.3
2023-05-06T21:06:51.527Z,66.3
2023-05-06T21:36:52.414Z,67.5
2023-05-06T22:06:52.999Z,68.2
2023-05-06T23:07:04.169Z,70.8
2023-05-06T23:37:05.086Z,72
